createdAt,value
2023-11-24T00:00:14.126Z,13.70
2023-11-24T00:03:17.466Z,18.17
2023-11-24T00:06:22.240Z,16.98
2023-11-24T00:09:28.638Z,15.38
2023-11-24T00:12:31.652Z,12.50
2023-11-24T00:15:35.125Z,14.77
2023-11-24T00:18:38.585Z,13.80
2023-11-24T00:21:42.485Z,12.63
2023-11-24T00:24:45.882Z,17.88
2023-11-24T00:27:50.702Z,17.33
2023-11-24T00:30:55.824Z,19.37
2023-11-24T00:33:59.173Z,21.65
2023-11-24T00:37:02.614Z,20.77
2023-11-24T00:40:09.305Z,21.00
2023-11-24T00:43:12.736Z,21.95
2023-11-24T00:46:16.467Z,10.07
2023-11-24T00:49:20.808Z,15.68
2023-11-24T00:52:24.238Z,16.77
2023-11-24T00:55:28.011Z,15.95
2023-11-24T00:58:31.049Z,12.30
2023-11-24T01:01:34.399Z,14.53
2023-11-24T01:04:37.470Z,13.40
2023-11-24T01:07:41.628Z,12.70
2023-11-24T01:10:45.147Z,15.55
2023-11-24T01:13:48.245Z,13.18
2023-11-24T01:16:51.826Z,12.53
2023-11-24T01:19:55.080Z,15.65
2023-11-24T01:22:58.135Z,13.15
2023-11-24T01:26:01.658Z,17.30
2023-11-24T01:29:04.929Z,17.50
2023-11-24T01:32:08.898Z,12.43
2023-11-24T01:35:12.238Z,14.15
2023-11-24T01:38:15.436Z,16.35
2023-11-24T01:41:19.418Z,15.60
2023-11-24T01:44:23.817Z,14.88
2023-11-24T01:47:29.237Z,9.63
2023-11-24T01:50:32.810Z,11.13
2023-11-24T01:53:36.121Z,13.07
2023-11-24T01:56:39.797Z,13.02
2023-11-24T01:59:43.235Z,13.32
2023-11-24T02:02:46.434Z,13.10
2023-11-24T02:05:49.732Z,10.85
2023-11-24T02:08:53.125Z,11.50
2023-11-24T02:11:56.437Z,15.10
2023-11-24T02:14:59.615Z,8.88
2023-11-24T02:18:02.698Z,12.37
2023-11-24T02:21:06.584Z,11.52
2023-11-24T02:24:10.889Z,13.18
2023-11-24T02:27:14.844Z,14.18
2023-11-24T02:30:18.389Z,14.13
2023-11-24T02:33:22.043Z,11.37
2023-11-24T02:36:29.147Z,11.80
2023-11-24T02:39:32.199Z,11.85
2023-11-24T02:42:38.547Z,10.73
2023-11-24T02:45:41.726Z,11.25
2023-11-24T02:48:45.810Z,10.40
2023-11-24T02:51:49.246Z,10.30
2023-11-24T02:54:53.749Z,14.10
2023-11-24T02:57:58.080Z,8.98
2023-11-24T03:01:02.554Z,7.68
2023-11-24T03:04:06.162Z,16.47
2023-11-24T03:07:10.515Z,13.07
2023-11-24T03:10:13.583Z,11.65
2023-11-24T03:13:16.781Z,10.00
2023-11-24T03:16:20.006Z,11.98
2023-11-24T03:19:23.397Z,11.57
2023-11-24T03:22:26.575Z,14.02
2023-11-24T03:25:30.434Z,8.73
2023-11-24T03:28:35.479Z,10.75
2023-11-24T03:31:40.886Z,15.20
2023-11-24T03:34:44.116Z,6.70
2023-11-24T03:37:47.831Z,12.07
2023-11-24T03:40:55.338Z,13.77
2023-11-24T03:43:58.571Z,12.00
2023-11-24T03:47:01.807Z,17.30
2023-11-24T03:50:05.029Z,10.13
2023-11-24T03:53:09.552Z,15.57
2023-11-24T03:56:15.676Z,17.33
2023-11-24T03:59:18.491Z,14.10
2023-11-24T04:02:21.409Z,17.55
2023-11-24T04:05:24.208Z,11.77
2023-11-24T04:08:27.288Z,14.88
2023-11-24T04:11:30.351Z,9.95
2023-11-24T04:14:33.380Z,13.18
2023-11-24T04:17:37.644Z,11.70
2023-11-24T04:20:40.817Z,9.43
2023-11-24T04:23:45.281Z,17.08
2023-11-24T04:26:48.443Z,14.73
2023-11-24T04:29:51.568Z,14.52
2023-11-24T04:32:54.710Z,13.88
2023-11-24T04:35:59.120Z,13.70
2023-11-24T04:39:01.942Z,15.75
2023-11-24T04:42:05.351Z,11.00
2023-11-24T04:45:12.338Z,11.07
2023-11-24T04:48:16.673Z,11.75
2023-11-24T04:51:19.814Z,7.43
2023-11-24T04:54:22.906Z,13.43
2023-11-24T04:57:25.960Z,9.45
2023-11-24T05:00:29.536Z,11.65
2023-11-24T05:03:32.667Z,14.52
2023-11-24T05:06:35.487Z,12.40
2023-11-24T05:09:38.802Z,9.27
2023-11-24T05:12:42.004Z,13.40
2023-11-24T05:15:45.067Z,10.50
2023-11-24T05:18:50.564Z,16.38
2023-11-24T05:21:53.486Z,11.50
2023-11-24T05:24:56.700Z,10.68
2023-11-24T05:27:59.821Z,10.07
2023-11-24T05:31:05.141Z,10.93
2023-11-24T05:34:08.498Z,8.40
2023-11-24T05:37:12.247Z,7.83
2023-11-24T05:40:17.312Z,11.05
2023-11-24T05:43:21.078Z,10.45
2023-11-24T05:46:24.125Z,11.65
2023-11-24T05:49:27.362Z,11.35
2023-11-24T05:52:30.439Z,10.87
2023-11-24T05:55:33.565Z,9.23
2023-11-24T05:58:36.773Z,13.88
2023-11-24T06:01:39.791Z,17.10
2023-11-24T06:04:43.017Z,12.20
2023-11-24T06:07:47.815Z,11.03
2023-11-24T06:10:52.684Z,12.10
2023-11-24T06:13:55.696Z,8.48
2023-11-24T06:16:58.721Z,6.85
2023-11-24T06:20:02.017Z,9.13
2023-11-24T06:23:05.301Z,7.33
2023-11-24T06:26:11.161Z,9.80
2023-11-24T06:29:14.169Z,10.10
2023-11-24T06:32:17.532Z,13.02
2023-11-24T06:35:20.689Z,10.05
2023-11-24T06:38:23.824Z,9.20
2023-11-24T06:41:26.866Z,10.40
2023-11-24T06:44:30.030Z,10.88
2023-11-24T06:47:33.199Z,7.47
2023-11-24T06:50:36.244Z,8.25
2023-11-24T06:53:39.464Z,10.87
2023-11-24T06:56:42.932Z,11.70
2023-11-24T06:59:46.225Z,14.65
2023-11-24T07:02:50.073Z,10.88
2023-11-24T07:05:53.324Z,11.60
2023-11-24T07:08:56.824Z,12.37
2023-11-24T07:12:00.035Z,12.85
2023-11-24T07:15:04.777Z,16.55
2023-11-24T07:18:08.346Z,9.30
2023-11-24T07:21:11.816Z,11.05
2023-11-24T07:24:14.641Z,16.17
2023-11-24T07:27:18.485Z,10.95
2023-11-24T07:30:23.921Z,11.20
2023-11-24T07:33:30.634Z,9.95
2023-11-24T07:36:33.950Z,6.53
2023-11-24T07:39:37.718Z,8.50
2023-11-24T07:42:43.034Z,7.65
2023-11-24T07:45:50.260Z,5.35
2023-11-24T07:48:53.359Z,8.63
2023-11-24T07:52:05.743Z,14.02
2023-11-24T07:55:09.273Z,9.67
2023-11-24T07:58:12.360Z,11.57
2023-11-24T08:01:15.943Z,13.88
2023-11-24T08:04:19.182Z,8.32
2023-11-24T08:07:23.175Z,10.02
2023-11-24T08:10:28.196Z,6.00
2023-11-24T08:13:31.202Z,2.95
2023-11-24T08:16:34.399Z,2.45
2023-11-24T08:19:37.764Z,2.00
2023-11-24T08:22:41.019Z,2.03
2023-11-24T08:25:44.237Z,2.73
2023-11-24T08:28:47.302Z,2.00
2023-11-24T08:31:51.126Z,2.50
2023-11-24T08:34:55.280Z,1.88
2023-11-24T08:37:58.645Z,2.78
2023-11-24T08:41:02.205Z,1.43
2023-11-24T08:44:06.105Z,2.00
2023-11-24T08:47:09.911Z,2.08
2023-11-24T08:50:14.554Z,2.00
2023-11-24T08:53:17.637Z,1.42
2023-11-24T08:56:21.365Z,1.60
2023-11-24T08:59:27.484Z,1.45
2023-11-24T09:02:32.220Z,1.85
2023-11-24T09:05:36.041Z,1.10
2023-11-24T09:08:39.168Z,1.27
2023-11-24T09:11:42.255Z,1.30
2023-11-24T09:14:45.422Z,1.20
2023-11-24T09:17:48.285Z,1.58
2023-11-24T09:20:51.268Z,1.45
2023-11-24T09:23:54.748Z,1.83
2023-11-24T09:27:05.122Z,3.53
2023-11-24T09:30:13.118Z,5.22
2023-11-24T09:33:18.115Z,2.40
2023-11-24T09:36:21.567Z,2.00
2023-11-24T09:39:28.398Z,2.17
2023-11-24T09:42:33.766Z,2.43
2023-11-24T09:45:36.961Z,7.40
2023-11-24T09:48:46.087Z,6.28
2023-11-24T09:51:49.522Z,9.25
2023-11-24T09:54:59.117Z,10.85
2023-11-24T09:58:04.218Z,5.33
2023-11-24T10:01:20.097Z,5.28
2023-11-24T10:04:23.263Z,3.90
2023-11-24T10:07:26.566Z,7.72
2023-11-24T10:10:30.495Z,14.32
2023-11-24T10:13:34.164Z,11.67
2023-11-24T10:16:42.252Z,2.95
2023-11-24T10:19:45.635Z,2.22
2023-11-24T10:22:52.071Z,1.75
2023-11-24T10:25:55.230Z,7.18
2023-11-24T10:28:58.882Z,6.93
2023-11-24T10:32:03.846Z,7.97
2023-11-24T10:35:08.446Z,4.55
2023-11-24T10:38:15.750Z,1.45
2023-11-24T10:41:24.427Z,1.40
2023-11-24T10:44:27.709Z,5.70
2023-11-24T10:47:37.935Z,18.05
2023-11-24T10:50:50.848Z,9.15
2023-11-24T10:54:01.558Z,19.35
2023-11-24T10:57:07.273Z,20.75
2023-11-24T11:00:14.947Z,8.93
2023-11-24T11:03:18.434Z,5.90
2023-11-24T11:06:36.294Z,1.95
2023-11-24T11:10:03.662Z,3.17
2023-11-24T11:13:07.509Z,24.38
2023-11-24T11:16:13.762Z,11.10
2023-11-24T11:19:33.981Z,2.50
2023-11-24T11:22:39.270Z,8.73
2023-11-24T11:25:45.848Z,1.92
2023-11-24T11:28:58.755Z,1.73
2023-11-24T11:32:02.824Z,6.80
2023-11-24T11:35:06.452Z,2.63
2023-11-24T11:38:15.444Z,1.65
2023-11-24T11:41:42.781Z,4.55
2023-11-24T11:44:56.883Z,11.48
2023-11-24T11:48:04.044Z,3.17
2023-11-24T11:51:14.680Z,2.90
2023-11-24T11:54:18.146Z,3.67
2023-11-24T11:57:24.982Z,3.25
2023-11-24T12:00:30.043Z,3.78
2023-11-24T12:03:36.226Z,2.47
2023-11-24T12:06:40.071Z,2.63
2023-11-24T12:09:43.418Z,4.38
2023-11-24T12:12:46.870Z,1.50
2023-11-24T12:15:50.082Z,1.52
2023-11-24T12:18:53.401Z,1.10
2023-11-24T12:21:58.988Z,0.85
2023-11-24T12:25:03.540Z,2.78
2023-11-24T12:28:10.756Z,2.05
2023-11-24T12:31:14.034Z,1.10
2023-11-24T12:34:24.782Z,2.57
2023-11-24T12:37:30.125Z,1.42
2023-11-24T12:40:35.793Z,2.47
2023-11-24T12:43:38.916Z,3.60
2023-11-24T12:46:42.155Z,2.30
2023-11-24T12:50:12.165Z,1.67
2023-11-24T12:53:16.851Z,2.03
2023-11-24T12:56:19.940Z,2.80
2023-11-24T12:59:23.807Z,4.15
2023-11-24T13:02:28.986Z,0.93
2023-11-24T13:05:35.219Z,1.67
2023-11-24T13:08:39.133Z,2.58
2023-11-24T13:11:42.184Z,5.32
2023-11-24T13:14:46.416Z,1.40
2023-11-24T13:17:50.576Z,1.13
2023-11-24T13:20:54.131Z,0.97
2023-11-24T13:23:57.719Z,3.63
2023-11-24T13:27:01.105Z,2.05
2023-11-24T13:30:11.030Z,1.20
2023-11-24T13:33:16.194Z,1.70
2023-11-24T13:36:22.887Z,2.33
2023-11-24T13:39:30.397Z,1.13
2023-11-24T13:42:35.540Z,1.75
2023-11-24T13:45:43.288Z,1.23
2023-11-24T13:48:47.705Z,1.83
2023-11-24T13:51:54.332Z,1.47
2023-11-24T13:54:58.189Z,2.33
2023-11-24T13:58:02.028Z,2.35
2023-11-24T14:01:07.110Z,2.03
2023-11-24T14:04:12.968Z,1.85
2023-11-24T14:07:17.502Z,2.07
2023-11-24T14:10:23.094Z,1.55
2023-11-24T14:13:28.746Z,2.95
2023-11-24T14:22:53.646Z,4.78
2023-11-24T14:25:57.391Z,2.47
2023-11-24T14:29:02.564Z,3.30
2023-11-24T14:32:08.658Z,4.97
2023-11-24T14:35:12.874Z,2.13
2023-11-24T14:38:16.611Z,2.88
2023-11-24T14:41:20.909Z,4.43
2023-11-24T14:44:25.127Z,4.32
2023-11-24T14:47:29.170Z,3.90
2023-11-24T14:50:33.038Z,6.38
2023-11-24T14:53:38.185Z,6.63
2023-11-24T14:56:41.974Z,3.93
2023-11-24T14:59:45.361Z,3.13
2023-11-24T15:02:49.660Z,2.20
2023-11-24T15:05:56.620Z,5.40
2023-11-24T15:09:07.181Z,3.03
2023-11-24T15:12:10.913Z,2.00
2023-11-24T15:15:16.612Z,2.08
2023-11-24T15:18:21.811Z,7.18
2023-11-24T15:21:36.412Z,1.55
2023-11-24T15:24:40.003Z,1.80
2023-11-24T15:27:44.320Z,4.83
2023-11-24T15:30:53.083Z,5.10
2023-11-24T15:34:00.744Z,2.78
2023-11-24T15:37:05.158Z,8.75
2023-11-24T15:40:13.294Z,11.63
2023-11-24T15:43:21.353Z,8.30
2023-11-24T15:46:31.371Z,6.00
2023-11-24T15:49:37.222Z,7.43
2023-11-24T15:52:45.217Z,12.18
2023-11-24T15:55:50.924Z,5.80
2023-11-24T15:58:56.713Z,5.53
2023-11-24T16:02:01.973Z,9.13
2023-11-24T16:05:07.804Z,6.65
2023-11-24T16:08:13.004Z,7.55
2023-11-24T16:11:17.374Z,9.90
2023-11-24T16:14:21.263Z,10.27
2023-11-24T16:17:25.170Z,8.07
2023-11-24T16:20:29.065Z,13.35
2023-11-24T16:23:33.574Z,14.65
2023-11-24T16:26:38.050Z,6.50
2023-11-24T16:29:44.004Z,3.87
2023-11-24T16:32:48.186Z,5.45
2023-11-24T16:35:51.772Z,6.25
2023-11-24T16:38:56.047Z,4.93
2023-11-24T16:42:01.360Z,6.43
2023-11-24T16:45:09.749Z,5.53
2023-11-24T16:48:13.323Z,8.35
2023-11-24T16:51:17.448Z,14.38
2023-11-24T16:54:21.306Z,10.38
2023-11-24T16:57:29.747Z,19.50
2023-11-24T17:00:33.338Z,12.63
2023-11-24T17:03:41.010Z,10.02
2023-11-24T17:06:48.689Z,14.13
2023-11-24T17:09:58.072Z,15.95
2023-11-24T17:13:03.278Z,18.35
2023-11-24T17:16:08.070Z,8.13
2023-11-24T17:19:14.164Z,6.60
2023-11-24T17:22:17.260Z,6.65
2023-11-24T17:25:32.160Z,5.57
2023-11-24T17:28:40.302Z,5.72
2023-11-24T17:31:44.241Z,15.07
2023-11-24T17:34:47.578Z,23.75
2023-11-24T17:37:50.767Z,17.63
2023-11-24T17:40:53.869Z,8.90
2023-11-24T17:43:57.005Z,5.60
2023-11-24T17:47:06.422Z,7.43
2023-11-24T17:50:10.879Z,5.22
2023-11-24T17:53:14.000Z,5.20
2023-11-24T17:56:18.883Z,3.88
2023-11-24T17:59:23.683Z,6.90
2023-11-24T18:02:26.995Z,2.70
2023-11-24T18:05:29.920Z,4.68
2023-11-24T18:08:34.701Z,4.25
2023-11-24T18:11:38.234Z,3.22
2023-11-24T18:14:41.188Z,2.20
2023-11-24T18:17:44.155Z,4.10
2023-11-24T18:20:47.348Z,3.40
2023-11-24T18:23:50.813Z,3.83
2023-11-24T18:26:53.702Z,2.35
2023-11-24T18:29:56.547Z,4.15
2023-11-24T18:33:01.446Z,3.47
2023-11-24T18:36:04.703Z,3.25
2023-11-24T18:39:13.248Z,4.18
2023-11-24T18:42:16.129Z,4.88
2023-11-24T18:45:20.475Z,3.85
2023-11-24T18:48:23.437Z,3.67
2023-11-24T18:51:26.605Z,4.20
2023-11-24T18:54:30.021Z,2.88
2023-11-24T18:57:33.734Z,3.15
2023-11-24T19:00:36.864Z,2.42
2023-11-24T19:03:39.899Z,2.07
2023-11-24T19:06:43.169Z,2.92
2023-11-24T19:09:47.622Z,4.13
2023-11-24T19:12:52.676Z,2.28
2023-11-24T19:15:56.716Z,3.25
2023-11-24T19:18:59.677Z,2.37
2023-11-24T19:22:02.933Z,2.25
2023-11-24T19:25:06.911Z,3.08
2023-11-24T19:28:11.599Z,3.90
2023-11-24T19:31:14.657Z,4.43
2023-11-24T19:34:18.125Z,4.30
2023-11-24T19:37:21.367Z,3.20
2023-11-24T19:40:25.247Z,4.65
2023-11-24T19:43:28.437Z,7.47
2023-11-24T19:46:31.446Z,10.73
2023-11-24T19:49:34.418Z,9.23
2023-11-24T19:52:37.667Z,5.75
2023-11-24T19:55:41.086Z,5.82
2023-11-24T19:58:44.084Z,3.25
2023-11-24T20:01:47.155Z,3.67
2023-11-24T20:04:51.458Z,3.43
2023-11-24T20:07:54.344Z,5.80
2023-11-24T20:10:57.491Z,2.80
2023-11-24T20:14:00.810Z,6.93
2023-11-24T20:17:05.020Z,6.25
2023-11-24T20:20:10.066Z,2.33
2023-11-24T20:23:13.737Z,1.80
2023-11-24T20:26:18.203Z,2.53
2023-11-24T20:29:22.109Z,2.42
2023-11-24T20:32:25.316Z,2.03
2023-11-24T20:35:28.469Z,3.73
2023-11-24T20:38:31.666Z,3.53
2023-11-24T20:41:41.060Z,2.65
2023-11-24T20:44:44.060Z,2.15
2023-11-24T20:47:49.933Z,2.20
2023-11-24T20:50:52.969Z,3.13
2023-11-24T20:53:57.189Z,2.78
2023-11-24T20:57:00.869Z,3.38
2023-11-24T21:00:11.110Z,2.47
2023-11-24T21:03:15.087Z,2.00
2023-11-24T21:06:18.623Z,1.77
2023-11-24T21:09:21.845Z,1.77
2023-11-24T21:12:25.080Z,2.67
2023-11-24T21:15:34.785Z,1.73
2023-11-24T21:18:37.706Z,2.17
2023-11-24T21:21:40.685Z,2.43
2023-11-24T21:24:43.829Z,1.75
2023-11-24T21:27:46.608Z,1.95
2023-11-24T21:30:49.544Z,1.38
2023-11-24T21:33:52.542Z,1.33
2023-11-24T21:36:55.406Z,1.50
2023-11-24T21:40:08.575Z,2.42
2023-11-24T21:43:11.950Z,2.00
2023-11-24T21:46:22.288Z,1.48
2023-11-24T21:49:25.636Z,2.03
2023-11-24T21:52:28.556Z,1.87
2023-11-24T21:55:32.473Z,1.73
2023-11-24T21:58:36.415Z,2.38
2023-11-24T22:01:39.617Z,2.05
2023-11-24T22:04:43.205Z,1.52
2023-11-24T22:07:46.064Z,1.80
2023-11-24T22:10:52.635Z,2.00
2023-11-24T22:13:55.740Z,1.95
2023-11-24T22:16:58.723Z,1.67
2023-11-24T22:20:08.124Z,1.67
2023-11-24T22:23:11.663Z,1.20
2023-11-24T22:26:22.027Z,1.13
2023-11-24T22:29:27.279Z,1.85
2023-11-24T22:32:30.360Z,1.42
2023-11-24T22:35:33.572Z,1.77
2023-11-24T22:38:36.761Z,1.50
2023-11-24T22:41:40.135Z,1.38
2023-11-24T22:44:43.533Z,1.67
2023-11-24T22:47:46.656Z,1.80
2023-11-24T22:50:49.756Z,1.77
2023-11-24T22:53:53.763Z,1.40
2023-11-24T22:56:57.200Z,1.80
2023-11-24T23:00:00.172Z,2.03
2023-11-24T23:03:06.380Z,1.30
2023-11-24T23:06:11.633Z,1.40
2023-11-24T23:09:20.014Z,1.40
2023-11-24T23:12:23.158Z,7.43
2023-11-24T23:15:28.109Z,1.45
2023-11-24T23:18:31.352Z,1.40
2023-11-24T23:21:34.542Z,2.72
2023-11-24T23:24:37.637Z,2.00
2023-11-24T23:27:41.176Z,1.75
2023-11-24T23:30:44.905Z,1.85
2023-11-24T23:33:47.950Z,1.83
2023-11-24T23:36:51.084Z,1.90
2023-11-24T23:39:55.992Z,1.20
2023-11-24T23:42:58.875Z,1.52
2023-11-24T23:46:02.107Z,1.80
2023-11-24T23:49:05.200Z,1.30
2023-11-24T23:52:08.524Z,1.80
2023-11-24T23:55:11.501Z,1.70
2023-11-24T23:58:14.622Z,1.60
